Time;durP1;ratioP1;P1;durP2;ratioP2;P2;SDS_P1;SDS_P2;PMS_P1;PMS_P2;Temp;Humidity;BMP_temperature;BMP_pressure;BME280_temperature;BME280_humidity;BME280_pressure;Samples;Min_cycle;Max_cycle;Signal;HPM_P1;HPM_P2
2021/04/30 00:01:20;;;;;;;7.55;3.58;;;15.40;89.70;;;;;;5013121;28;20091;-73
2021/04/30 00:03:46;;;;;;;12.10;4.70;;;15.50;89.90;;;;;;5013636;28;20402;-73
2021/04/30 00:06:12;;;;;;;7.95;4.13;;;15.40;90.00;;;;;;5013495;28;20033;-73
2021/04/30 00:08:39;;;;;;;7.00;3.60;;;15.40;89.90;;;;;;5013506;28;20033;-72
2021/04/30 00:11:07;;;;;;;9.10;3.80;;;15.50;90.00;;;;;;5013459;28;20030;-73
2021/04/30 00:13:36;;;;;;;7.60;4.00;;;15.40;90.00;;;;;;5013458;28;20170;-73
2021/04/30 00:16:03;;;;;;;6.97;3.55;;;15.50;90.10;;;;;;5013488;28;20033;-73
2021/04/30 00:18:29;;;;;;;5.40;3.55;;;15.50;90.10;;;;;;5013182;28;20084;-73
2021/04/30 00:20:56;;;;;;;7.03;3.70;;;15.50;90.00;;;;;;5013226;28;20033;-72
2021/04/30 00:23:26;;;;;;;4.38;3.60;;;15.50;90.00;;;;;;5013317;28;20524;-73
2021/04/30 00:25:53;;;;;;;7.45;3.88;;;15.50;89.90;;;;;;5013062;28;20022;-72
2021/04/30 00:28:20;;;;;;;6.47;4.10;;;15.50;90.10;;;;;;5013417;28;20018;-73
2021/04/30 00:30:46;;;;;;;7.95;3.80;;;15.50;90.10;;;;;;5013291;28;20096;-72
2021/04/30 00:33:12;;;;;;;5.50;3.90;;;15.50;90.00;;;;;;5013064;28;20546;-73
2021/04/30 00:35:37;;;;;;;6.65;3.97;;;15.50;90.00;;;;;;5013106;28;20446;-73
2021/04/30 00:38:03;;;;;;;8.52;4.20;;;15.50;90.00;;;;;;5013052;28;20097;-73
2021/04/30 00:40:29;;;;;;;6.05;4.03;;;15.50;90.00;;;;;;5012978;28;20045;-73
2021/04/30 00:42:55;;;;;;;6.15;3.70;;;15.50;90.00;;;;;;5012858;28;20101;-73
2021/04/30 00:45:23;;;;;;;5.15;4.10;;;15.50;90.00;;;;;;5012982;28;20083;-73
2021/04/30 00:47:52;;;;;;;10.70;4.55;;;15.50;90.10;;;;;;5013224;28;20394;-72
2021/04/30 00:50:20;;;;;;;10.15;3.97;;;15.50;90.20;;;;;;5013082;28;20046;-72
2021/04/30 00:52:46;;;;;;;13.05;4.10;;;15.50;90.20;;;;;;5013078;28;20088;-73
2021/04/30 00:55:14;;;;;;;7.45;3.97;;;15.50;90.00;;;;;;5012814;28;20438;-73
2021/04/30 00:57:46;;;;;;;7.30;3.83;;;15.50;89.80;;;;;;5012349;28;20108;-73
2021/04/30 01:00:13;;;;;;;9.02;4.28;;;15.40;90.00;;;;;;5010363;28;20056;-73
2021/04/30 01:02:39;;;;;;;12.90;3.85;;;15.50;90.10;;;;;;5010075;28;20033;-73
2021/04/30 01:05:06;;;;;;;9.00;4.00;;;15.50;90.10;;;;;;5011430;28;20026;-73
2021/04/30 01:07:33;;;;;;;7.35;3.88;;;15.50;90.10;;;;;;5012758;28;20026;-73
2021/04/30 01:09:59;;;;;;;6.38;3.80;;;15.50;90.10;;;;;;5012890;28;20069;-73
2021/04/30 01:12:25;;;;;;;7.45;4.10;;;15.50;90.00;;;;;;5016676;28;20053;-73
2021/04/30 01:14:51;;;;;;;8.70;4.20;;;15.50;90.00;;;;;;5016645;28;20038;-73
2021/04/30 01:17:17;;;;;;;8.75;3.70;;;15.50;90.00;;;;;;5016584;28;20540;-73
2021/04/30 01:19:44;;;;;;;8.10;4.45;;;15.50;90.10;;;;;;5015988;28;20397;-73
2021/04/30 01:22:10;;;;;;;4.65;3.75;;;15.40;90.10;;;;;;5016033;28;20034;-72
2021/04/30 01:24:36;;;;;;;10.13;4.28;;;15.50;90.10;;;;;;5016336;28;20022;-73
2021/04/30 01:27:02;;;;;;;6.78;4.28;;;15.50;90.10;;;;;;5016297;28;20026;-73
2021/04/30 01:29:30;;;;;;;7.22;3.97;;;15.50;90.10;;;;;;5015790;28;20032;-72
2021/04/30 01:31:56;;;;;;;7.07;4.15;;;15.50;90.10;;;;;;5016213;28;20470;-72
2021/04/30 01:34:22;;;;;;;7.32;4.10;;;15.40;90.20;;;;;;5016470;28;20394;-73
2021/04/30 01:36:49;;;;;;;7.00;4.30;;;15.50;90.20;;;;;;5015010;28;20057;-73
2021/04/30 01:39:15;;;;;;;4.70;4.13;;;15.50;90.20;;;;;;5016340;28;20026;-73
2021/04/30 01:41:42;;;;;;;5.28;4.30;;;15.50;90.20;;;;;;5016144;28;20041;-73
2021/04/30 01:44:10;;;;;;;6.53;5.10;;;15.50;90.30;;;;;;5015771;28;20018;-72
2021/04/30 01:46:37;;;;;;;9.13;4.78;;;15.50;90.30;;;;;;5016100;28;20022;-73
2021/04/30 01:49:04;;;;;;;6.40;4.20;;;15.50;90.30;;;;;;5015708;28;20061;-73
2021/04/30 01:51:30;;;;;;;11.15;4.57;;;15.50;90.30;;;;;;5015524;28;20050;-73
2021/04/30 01:53:56;;;;;;;8.65;4.80;;;15.50;90.20;;;;;;5015785;28;20025;-73
2021/04/30 01:56:22;;;;;;;7.55;4.50;;;15.50;90.30;;;;;;5015653;28;20471;-73
2021/04/30 01:58:48;;;;;;;8.65;4.88;;;15.50;90.20;;;;;;5015745;28;20022;-73
2021/04/30 02:01:13;;;;;;;6.40;4.63;;;15.50;90.10;;;;;;5015791;28;20030;-73
2021/04/30 02:03:39;;;;;;;8.00;4.50;;;15.50;90.10;;;;;;5015861;28;20106;-73
2021/04/30 02:06:06;;;;;;;9.45;5.00;;;15.50;90.10;;;;;;5015757;28;20105;-73
2021/04/30 02:08:32;;;;;;;8.48;4.72;;;15.40;90.20;;;;;;5015743;28;20057;-73
2021/04/30 02:10:57;;;;;;;13.82;5.60;;;15.40;90.20;;;;;;5015695;28;20041;-73
2021/04/30 02:13:23;;;;;;;8.10;4.88;;;15.40;90.20;;;;;;5015798;28;20144;-72
2021/04/30 02:15:51;;;;;;;9.48;4.82;;;15.40;90.30;;;;;;5015816;28;20022;-73
2021/04/30 02:18:17;;;;;;;7.82;4.80;;;15.40;90.30;;;;;;5015341;28;20383;-73
2021/04/30 02:20:43;;;;;;;8.93;4.85;;;15.40;90.30;;;;;;5014877;28;20042;-73
2021/04/30 02:23:10;;;;;;;13.23;4.18;;;15.40;90.20;;;;;;5015150;28;20085;-73
2021/04/30 02:25:37;;;;;;;7.22;4.90;;;15.40;90.20;;;;;;5015286;28;20486;-73
2021/04/30 02:28:04;;;;;;;11.55;5.00;;;15.40;90.20;;;;;;5015422;28;20056;-73
2021/04/30 02:30:31;;;;;;;8.45;4.80;;;15.50;90.20;;;;;;5014067;28;20475;-73
2021/04/30 02:32:58;;;;;;;16.33;4.75;;;15.40;90.00;;;;;;5015257;28;20474;-73
2021/04/30 02:35:28;;;;;;;13.27;5.20;;;15.40;90.00;;;;;;5015319;28;20069;-73
2021/04/30 02:37:55;;;;;;;12.35;5.20;;;15.50;89.90;;;;;;5014920;28;20402;-73
2021/04/30 02:40:24;;;;;;;15.60;5.28;;;15.50;89.60;;;;;;5015096;28;20030;-73
2021/04/30 02:42:50;;;;;;;11.95;5.80;;;15.50;89.50;;;;;;5015283;28;20030;-73
2021/04/30 02:45:17;;;;;;;9.15;5.38;;;15.50;89.50;;;;;;5015023;28;20057;-73
2021/04/30 02:47:46;;;;;;;13.95;5.72;;;15.50;89.50;;;;;;5014946;28;20038;-73
2021/04/30 02:50:13;;;;;;;12.60;5.75;;;15.50;89.40;;;;;;5013655;28;20050;-72
2021/04/30 02:52:39;;;;;;;10.82;5.82;;;15.50;89.50;;;;;;5014745;28;20092;-72
2021/04/30 02:55:06;;;;;;;11.48;5.97;;;15.50;89.30;;;;;;5014887;28;20026;-73
2021/04/30 02:57:33;;;;;;;15.10;6.13;;;15.50;89.00;;;;;;5014840;28;20025;-73
2021/04/30 03:00:00;;;;;;;16.25;5.43;;;15.50;88.80;;;;;;5014869;28;20018;-73
2021/04/30 03:02:26;;;;;;;11.57;5.60;;;15.60;88.70;;;;;;5014724;28;20116;-73
2021/04/30 03:04:52;;;;;;;12.82;5.63;;;15.50;88.50;;;;;;5014839;28;20032;-73
2021/04/30 03:07:18;;;;;;;12.68;5.82;;;15.50;88.50;;;;;;5014424;28;20475;-73
2021/04/30 03:09:43;;;;;;;19.08;6.20;;;15.60;88.30;;;;;;5014792;28;20097;-73
2021/04/30 03:12:09;;;;;;;14.27;5.85;;;15.60;88.40;;;;;;5014449;28;20022;-73
2021/04/30 03:14:35;;;;;;;14.70;5.43;;;15.60;88.40;;;;;;5014642;28;20025;-73
2021/04/30 03:17:00;;;;;;;15.80;5.38;;;15.60;88.10;;;;;;5014453;28;20030;-73
2021/04/30 03:19:26;;;;;;;16.77;5.88;;;15.60;87.90;;;;;;5014285;28;20034;-73
2021/04/30 03:21:52;;;;;;;16.77;5.57;;;15.60;88.10;;;;;;5014170;28;20074;-73
2021/04/30 03:24:18;;;;;;;11.10;5.05;;;15.60;88.00;;;;;;5014427;28;20109;-73
2021/04/30 03:26:44;;;;;;;16.70;4.95;;;15.60;87.90;;;;;;5014341;28;20425;-73
2021/04/30 03:29:09;;;;;;;11.30;5.00;;;15.60;87.70;;;;;;5014364;28;20030;-73
2021/04/30 03:31:35;;;;;;;14.60;5.28;;;15.60;87.40;;;;;;5014231;28;20018;-73
2021/04/30 03:34:01;;;;;;;10.63;5.35;;;15.60;87.40;;;;;;5014191;28;20040;-73
2021/04/30 03:36:27;;;;;;;15.90;5.13;;;15.60;87.30;;;;;;5014235;28;20072;-73
2021/04/30 03:38:52;;;;;;;13.88;5.00;;;15.60;86.80;;;;;;5013954;28;20099;-73
2021/04/30 03:41:18;;;;;;;10.93;4.30;;;15.60;86.70;;;;;;5013910;28;20026;-73
2021/04/30 03:43:44;;;;;;;12.93;4.95;;;15.60;86.90;;;;;;5013933;28;20026;-73
2021/04/30 03:46:11;;;;;;;15.07;4.93;;;15.60;86.70;;;;;;5014025;28;20037;-73
2021/04/30 03:48:37;;;;;;;11.75;5.22;;;15.60;86.70;;;;;;5013874;28;20434;-73
2021/04/30 03:51:04;;;;;;;21.60;5.25;;;15.60;86.60;;;;;;5013453;28;20046;-73
2021/04/30 03:53:29;;;;;;;12.65;5.03;;;15.60;86.80;;;;;;5013877;28;20022;-73
2021/04/30 03:55:55;;;;;;;13.98;4.72;;;15.60;86.70;;;;;;5014144;28;20052;-73
2021/04/30 03:58:21;;;;;;;12.25;5.30;;;15.60;86.60;;;;;;5013726;28;20108;-73
2021/04/30 04:00:47;;;;;;;11.88;4.07;;;15.70;86.30;;;;;;5013392;28;20049;-73
2021/04/30 04:03:13;;;;;;;13.65;4.43;;;15.70;86.00;;;;;;5013919;28;20425;-73
2021/04/30 04:05:38;;;;;;;9.20;4.13;;;15.70;85.90;;;;;;5013634;28;20113;-73
2021/04/30 04:08:07;;;;;;;10.57;4.20;;;15.70;86.00;;;;;;5013483;28;20029;-73
2021/04/30 04:10:33;;;;;;;11.30;4.80;;;15.70;86.10;;;;;;5013371;28;20041;-73
2021/04/30 04:12:59;;;;;;;10.70;4.40;;;15.70;85.80;;;;;;5013506;28;20026;-73
2021/04/30 04:15:24;;;;;;;18.65;4.25;;;15.70;85.70;;;;;;5012526;28;20029;-73
2021/04/30 04:17:50;;;;;;;12.95;4.43;;;15.70;85.60;;;;;;5013335;28;20029;-73
2021/04/30 04:20:16;;;;;;;11.88;4.25;;;15.70;85.60;;;;;;5013709;28;20050;-73
2021/04/30 04:22:42;;;;;;;10.63;4.22;;;15.70;86.30;;;;;;5013453;28;20036;-73
2021/04/30 04:25:08;;;;;;;11.30;4.95;;;15.70;85.70;;;;;;5013278;28;20026;-73
2021/04/30 04:27:34;;;;;;;13.95;4.35;;;15.70;85.70;;;;;;5013307;28;20034;-73
2021/04/30 04:30:03;;;;;;;15.07;3.72;;;15.70;86.10;;;;;;5013192;28;20080;-73
2021/04/30 04:32:29;;;;;;;12.15;3.60;;;15.70;85.70;;;;;;5013208;28;20475;-73
2021/04/30 04:34:55;;;;;;;9.52;3.95;;;15.70;85.50;;;;;;5013158;28;20040;-73
2021/04/30 04:37:20;;;;;;;8.90;3.95;;;15.80;86.00;;;;;;5013342;28;20398;-72
2021/04/30 04:39:46;;;;;;;13.20;4.18;;;15.80;85.50;;;;;;5013295;28;20034;-73
2021/04/30 04:42:12;;;;;;;11.00;3.92;;;15.80;85.70;;;;;;5012961;28;20085;-72
2021/04/30 04:44:37;;;;;;;7.93;3.70;;;15.80;85.50;;;;;;5012939;28;20045;-73
2021/04/30 04:47:04;;;;;;;8.48;3.83;;;15.80;85.50;;;;;;5013250;28;20034;-72
2021/04/30 04:49:29;;;;;;;8.70;3.83;;;15.80;85.40;;;;;;5012947;28;20113;-73
2021/04/30 04:51:55;;;;;;;9.80;3.65;;;15.80;85.30;;;;;;5012893;28;20110;-73
2021/04/30 04:54:21;;;;;;;12.95;4.53;;;15.80;85.10;;;;;;5013035;28;20053;-73
2021/04/30 04:56:48;;;;;;;10.90;3.78;;;15.80;85.00;;;;;;5011843;28;20022;-73
2021/04/30 04:59:14;;;;;;;13.63;3.72;;;15.90;85.00;;;;;;5012989;28;20030;-73
2021/04/30 05:01:39;;;;;;;11.00;3.92;;;15.90;84.90;;;;;;5012072;28;20494;-72
2021/04/30 05:04:05;;;;;;;8.07;3.70;;;15.90;85.00;;;;;;5013154;28;20550;-73
2021/04/30 05:06:31;;;;;;;11.30;3.83;;;15.90;85.10;;;;;;5013185;28;20515;-73
2021/04/30 05:08:57;;;;;;;12.80;4.20;;;15.90;85.20;;;;;;5013040;28;20076;-72
2021/04/30 05:11:22;;;;;;;8.70;4.15;;;15.90;85.00;;;;;;5012925;28;20466;-73
2021/04/30 05:13:48;;;;;;;13.70;4.07;;;15.90;85.10;;;;;;5012611;28;20018;-73
2021/04/30 05:16:14;;;;;;;11.68;3.78;;;15.90;85.40;;;;;;5013156;28;20137;-73
2021/04/30 05:18:43;;;;;;;12.02;3.75;;;15.90;85.00;;;;;;5012695;28;20374;-73
2021/04/30 05:21:11;;;;;;;7.50;3.60;;;15.90;84.50;;;;;;5011610;28;20117;-73
2021/04/30 05:23:38;;;;;;;8.55;3.65;;;15.90;84.50;;;;;;5012707;28;20018;-73
2021/04/30 05:26:04;;;;;;;11.60;3.80;;;16.00;84.60;;;;;;5012839;28;20052;-73
2021/04/30 05:28:33;;;;;;;6.75;3.38;;;16.00;84.80;;;;;;5012834;28;20026;-73
2021/04/30 05:31:00;;;;;;;8.98;3.88;;;16.00;84.70;;;;;;5012739;28;20018;-73
2021/04/30 05:33:26;;;;;;;9.98;3.75;;;16.10;84.70;;;;;;5011368;28;20033;-72
2021/04/30 05:35:52;;;;;;;10.18;3.75;;;16.10;84.50;;;;;;5012914;28;20386;-72
2021/04/30 05:38:18;;;;;;;20.10;5.60;;;16.10;84.30;;;;;;5012323;28;20034;-72
2021/04/30 05:40:43;;;;;;;9.88;4.25;;;16.10;84.50;;;;;;5010875;28;20390;-72
2021/04/30 05:43:09;;;;;;;8.68;3.78;;;16.10;85.30;;;;;;5011703;28;20038;-72
2021/04/30 05:45:35;;;;;;;8.90;3.53;;;16.10;85.40;;;;;;5012376;28;20049;-72
2021/04/30 05:48:01;;;;;;;7.90;3.10;;;16.10;85.20;;;;;;5012438;28;20030;-73
2021/04/30 05:50:27;;;;;;;9.13;3.28;;;16.10;84.30;;;;;;5012301;28;20135;-72
2021/04/30 05:52:52;;;;;;;11.35;3.67;;;16.10;84.20;;;;;;5011679;28;20070;-72
2021/04/30 05:55:18;;;;;;;11.55;3.30;;;16.20;84.20;;;;;;5011836;28;20022;-71
2021/04/30 05:57:44;;;;;;;9.05;2.97;;;16.20;83.90;;;;;;5014964;28;20604;-72
2021/04/30 06:00:12;;;;;;;8.38;3.30;;;16.20;83.90;;;;;;5015864;28;20113;-72
2021/04/30 06:02:39;;;;;;;14.18;4.65;;;16.30;83.90;;;;;;5015991;28;20129;-72
2021/04/30 06:05:06;;;;;;;17.20;4.10;;;16.30;83.80;;;;;;5016033;28;20041;-72
2021/04/30 06:07:32;;;;;;;15.23;3.90;;;16.40;83.70;;;;;;5015639;28;20616;-73
2021/04/30 06:09:57;;;;;;;11.52;3.40;;;16.30;83.50;;;;;;5014967;28;20049;-72
2021/04/30 06:12:23;;;;;;;13.20;4.25;;;16.40;83.30;;;;;;5015612;28;20071;-72
2021/04/30 06:14:49;;;;;;;12.05;3.80;;;16.40;83.30;;;;;;5013574;28;20389;-72
2021/04/30 06:17:16;;;;;;;8.68;3.22;;;16.40;82.90;;;;;;5014783;28;20537;-72
2021/04/30 06:19:41;;;;;;;12.50;3.33;;;16.40;82.60;;;;;;5014313;28;20081;-72
2021/04/30 06:22:07;;;;;;;10.13;2.85;;;16.40;82.60;;;;;;5013710;28;20038;-72
2021/04/30 06:24:33;;;;;;;8.82;2.72;;;16.40;82.10;;;;;;5015437;28;20025;-72
2021/04/30 06:26:59;;;;;;;6.82;3.13;;;16.40;82.40;;;;;;5014912;28;20105;-72
2021/04/30 06:29:25;;;;;;;13.60;3.08;;;16.40;82.50;;;;;;5014555;28;20533;-72
2021/04/30 06:31:50;;;;;;;8.35;2.85;;;16.30;83.20;;;;;;5015004;28;20029;-72
2021/04/30 06:34:16;;;;;;;10.68;3.35;;;16.30;82.80;;;;;;5015171;28;20091;-73
2021/04/30 06:36:42;;;;;;;6.93;3.00;;;16.30;83.10;;;;;;5015439;28;20494;-72
2021/04/30 06:39:07;;;;;;;9.73;3.30;;;16.30;82.90;;;;;;5015371;28;20068;-71
2021/04/30 06:41:33;;;;;;;12.60;3.08;;;16.30;82.20;;;;;;5015006;28;20038;-72
2021/04/30 06:43:59;;;;;;;10.85;3.10;;;16.30;82.70;;;;;;5015310;28;20028;-69
2021/04/30 06:46:26;;;;;;;9.02;2.83;;;16.30;83.20;;;;;;5015216;28;20034;-69
2021/04/30 06:48:52;;;;;;;10.48;3.25;;;16.30;83.60;;;;;;5015404;28;20448;-68
2021/04/30 06:51:18;;;;;;;11.20;3.10;;;16.30;83.80;;;;;;5015084;28;20050;-69
2021/04/30 06:53:44;;;;;;;8.63;3.28;;;16.40;83.80;;;;;;5015077;28;20478;-70
2021/04/30 06:56:10;;;;;;;7.05;3.35;;;16.40;82.60;;;;;;5015212;28;20057;-68
2021/04/30 06:58:36;;;;;;;13.85;2.90;;;16.40;82.60;;;;;;5015237;28;20398;-68
2021/04/30 07:01:03;;;;;;;9.93;2.75;;;16.40;82.50;;;;;;5014745;28;20041;-68
2021/04/30 07:03:29;;;;;;;12.73;3.28;;;16.40;83.70;;;;;;5014777;28;20018;-69
2021/04/30 07:05:55;;;;;;;9.60;3.25;;;16.40;83.30;;;;;;5014828;28;20030;-69
2021/04/30 07:08:20;;;;;;;10.75;3.38;;;16.50;83.40;;;;;;5014494;28;20022;-69
2021/04/30 07:10:46;;;;;;;10.70;3.35;;;16.50;81.80;;;;;;5013743;28;20093;-69
2021/04/30 07:13:12;;;;;;;7.63;2.70;;;16.60;83.10;;;;;;5014665;28;20379;-69
2021/04/30 07:15:38;;;;;;;10.73;3.65;;;16.60;83.60;;;;;;5014742;28;20026;-69
2021/04/30 07:18:05;;;;;;;7.63;3.05;;;16.70;82.80;;;;;;5014394;28;20490;-69
2021/04/30 07:20:33;;;;;;;10.80;3.33;;;16.70;81.60;;;;;;5014530;28;20022;-68
2021/04/30 07:22:59;;;;;;;8.68;2.95;;;16.70;81.60;;;;;;5014107;28;20030;-68
2021/04/30 07:25:25;;;;;;;14.77;3.58;;;16.60;81.10;;;;;;5014130;28;20030;-68
2021/04/30 07:27:51;;;;;;;9.13;3.03;;;16.60;82.00;;;;;;5014249;28;20080;-68
2021/04/30 07:30:17;;;;;;;10.35;3.08;;;16.60;82.80;;;;;;5014195;28;20104;-68
2021/04/30 07:32:43;;;;;;;10.95;3.10;;;16.70;82.40;;;;;;5012796;28;20553;-69
2021/04/30 07:35:09;;;;;;;7.75;3.08;;;16.70;81.50;;;;;;5013811;28;20030;-68
2021/04/30 07:37:37;;;;;;;7.70;2.90;;;16.70;82.00;;;;;;5012734;28;20033;-69
2021/04/30 07:40:07;;;;;;;10.25;2.50;;;16.80;82.30;;;;;;5012376;28;20474;-68
2021/04/30 07:42:33;;;;;;;12.52;3.10;;;16.70;81.80;;;;;;5014233;28;20041;-69
2021/04/30 07:44:59;;;;;;;8.23;2.90;;;16.70;82.10;;;;;;5014573;28;20029;-68
2021/04/30 07:47:24;;;;;;;8.23;3.08;;;16.70;81.90;;;;;;5014319;28;20111;-68
2021/04/30 07:49:51;;;;;;;9.35;2.92;;;16.70;81.80;;;;;;5014017;28;20045;-69
2021/04/30 07:52:17;;;;;;;8.70;2.67;;;16.70;82.10;;;;;;5014108;28;20041;-68
2021/04/30 07:54:43;;;;;;;8.32;2.67;;;16.70;81.80;;;;;;5014234;28;20030;-69
2021/04/30 07:57:09;;;;;;;11.27;2.75;;;16.70;82.40;;;;;;5014018;28;20022;-69
2021/04/30 07:59:35;;;;;;;13.07;3.10;;;16.80;82.30;;;;;;5014184;28;20034;-69
2021/04/30 08:02:03;;;;;;;11.55;3.40;;;16.80;82.80;;;;;;5014235;28;20413;-69
2021/04/30 08:04:29;;;;;;;9.07;3.00;;;16.80;82.70;;;;;;5014021;28;20471;-68
2021/04/30 08:06:55;;;;;;;9.50;3.60;;;16.80;81.90;;;;;;5013876;28;20032;-68
2021/04/30 08:09:21;;;;;;;8.25;3.15;;;16.80;82.50;;;;;;5014054;28;20479;-69
2021/04/30 08:11:47;;;;;;;10.50;3.10;;;16.90;81.90;;;;;;5014206;28;20036;-68
2021/04/30 08:14:12;;;;;;;9.30;3.17;;;16.90;81.30;;;;;;5013817;28;20022;-68
2021/04/30 08:16:38;;;;;;;9.50;3.10;;;16.90;81.50;;;;;;5014040;28;20034;-68
2021/04/30 08:19:08;;;;;;;8.98;3.22;;;16.90;81.90;;;;;;5013054;28;20081;-68
2021/04/30 08:21:34;;;;;;;8.80;3.13;;;17.00;82.20;;;;;;5013760;28;20038;-68
2021/04/30 08:24:00;;;;;;;9.57;2.97;;;17.00;82.00;;;;;;5013675;28;20018;-68
2021/04/30 08:26:26;;;;;;;8.77;2.58;;;17.00;82.30;;;;;;5013633;28;20025;-68
2021/04/30 08:28:52;;;;;;;5.43;2.67;;;17.10;81.90;;;;;;5013790;28;20037;-68
2021/04/30 08:31:21;;;;;;;7.05;2.90;;;17.20;81.90;;;;;;5013653;28;20030;-68
2021/04/30 08:33:47;;;;;;;5.35;2.45;;;17.30;81.20;;;;;;5013587;28;20017;-68
2021/04/30 08:36:13;;;;;;;10.38;2.83;;;17.30;81.00;;;;;;5013805;28;20153;-68
2021/04/30 08:38:39;;;;;;;12.50;3.25;;;17.40;80.10;;;;;;5013644;28;20476;-68
2021/04/30 08:41:04;;;;;;;12.40;2.67;;;17.40;79.80;;;;;;5013455;28;20116;-68
2021/04/30 08:43:30;;;;;;;9.55;3.15;;;17.40;80.30;;;;;;5013779;28;20022;-68
2021/04/30 08:45:56;;;;;;;9.52;3.15;;;17.40;80.80;;;;;;5013405;28;20033;-68
2021/04/30 08:48:26;;;;;;;9.00;2.85;;;17.50;80.00;;;;;;5013345;28;20030;-69
2021/04/30 08:50:55;;;;;;;5.85;2.60;;;17.50;79.40;;;;;;5013535;28;20052;-68
2021/04/30 08:53:22;;;;;;;8.55;2.72;;;17.60;79.80;;;;;;5013393;28;20033;-68
2021/04/30 08:55:50;;;;;;;8.88;2.72;;;17.60;78.90;;;;;;5013337;28;20093;-68
2021/04/30 08:58:22;;;;;;;7.60;2.80;;;17.70;77.60;;;;;;5013220;28;20037;-68
2021/04/30 09:00:48;;;;;;;8.35;2.30;;;17.70;78.70;;;;;;5013343;28;20030;-68
2021/04/30 09:03:15;;;;;;;11.48;3.00;;;17.70;78.70;;;;;;5013324;28;20116;-68
2021/04/30 09:05:49;;;;;;;9.68;3.58;;;17.70;77.90;;;;;;5013519;28;20018;-68
2021/04/30 09:08:17;;;;;;;5.13;2.60;;;17.70;78.30;;;;;;5013113;28;20029;-68
2021/04/30 09:10:49;;;;;;;7.03;2.75;;;17.70;78.40;;;;;;5013439;28;20497;-68
2021/04/30 09:13:18;;;;;;;10.65;2.70;;;17.80;78.60;;;;;;5012072;28;20030;-68
2021/04/30 09:15:45;;;;;;;8.38;2.70;;;17.90;79.00;;;;;;5013516;28;20026;-68
2021/04/30 09:18:20;;;;;;;9.80;2.78;;;17.90;78.70;;;;;;5013018;28;20044;-68
2021/04/30 09:20:48;;;;;;;6.30;2.35;;;18.00;78.00;;;;;;5013123;28;20022;-68
2021/04/30 09:23:47;;;;;;;5.97;2.00;;;18.00;77.20;;;;;;5013164;28;20038;-68
2021/04/30 09:26:42;;;;;;;12.57;2.55;;;18.00;76.30;;;;;;5013078;28;20092;-68
2021/04/30 09:29:10;;;;;;;5.97;2.38;;;18.00;76.00;;;;;;5008329;28;20057;-68
2021/04/30 09:31:41;;;;;;;6.32;2.28;;;18.00;76.80;;;;;;5015545;28;20053;-68
2021/04/30 09:34:28;;;;;;;5.90;2.30;;;18.00;76.40;;;;;;5016649;28;20022;-68
2021/04/30 09:37:00;;;;;;;8.90;2.30;;;18.00;77.70;;;;;;5016403;28;20030;-68
2021/04/30 09:39:26;;;;;;;8.45;2.55;;;18.00;75.20;;;;;;5016439;28;20088;-68
2021/04/30 09:42:15;;;;;;;5.72;1.95;;;18.00;75.50;;;;;;5015206;28;20026;-68
2021/04/30 09:44:43;;;;;;;5.78;1.83;;;18.00;76.00;;;;;;5016445;28;20033;-68
2021/04/30 09:47:27;;;;;;;4.68;2.28;;;18.10;76.20;;;;;;5016222;28;20033;-68
2021/04/30 09:49:58;;;;;;;9.43;2.30;;;18.10;75.70;;;;;;5016230;28;20042;-68
2021/04/30 09:52:25;;;;;;;8.05;2.50;;;18.10;76.50;;;;;;5016437;28;20032;-68
2021/04/30 09:54:53;;;;;;;10.85;4.18;;;18.20;76.80;;;;;;5016305;28;20026;-68
2021/04/30 09:57:22;;;;;;;12.90;5.35;;;18.20;77.30;;;;;;5015870;28;20033;-68
2021/04/30 09:59:55;;;;;;;7.50;2.47;;;18.40;80.50;;;;;;5016560;28;20426;-68
2021/04/30 10:02:26;;;;;;;8.85;2.83;;;18.40;77.80;;;;;;5016297;28;20540;-68
2021/04/30 10:04:54;;;;;;;15.98;3.30;;;18.50;77.40;;;;;;5016130;28;20112;-68
2021/04/30 10:07:33;;;;;;;15.82;4.38;;;18.60;77.30;;;;;;5015912;28;20093;-68
2021/04/30 10:10:19;;;;;;;6.22;2.20;;;18.70;76.60;;;;;;5015974;28;20423;-68
2021/04/30 10:12:45;;;;;;;6.78;2.72;;;18.60;74.70;;;;;;5015945;28;20026;-69
2021/04/30 10:15:15;;;;;;;9.50;2.40;;;18.60;74.00;;;;;;5016142;28;20022;-68
2021/04/30 10:17:41;;;;;;;5.78;2.17;;;18.60;73.80;;;;;;5015716;28;20403;-69
2021/04/30 10:20:11;;;;;;;5.55;2.33;;;18.60;74.60;;;;;;5015800;28;20026;-68
2021/04/30 10:22:40;;;;;;;6.38;1.98;;;18.50;75.00;;;;;;5015734;28;20100;-68
2021/04/30 10:25:10;;;;;;;7.03;1.88;;;18.60;74.80;;;;;;5015438;28;20022;-68
2021/04/30 10:27:44;;;;;;;9.40;2.42;;;18.60;74.50;;;;;;5015593;28;20092;-69
2021/04/30 10:30:36;;;;;;;2.92;1.55;;;18.60;74.40;;;;;;5015682;28;20025;-68
2021/04/30 10:33:27;;;;;;;3.75;1.92;;;18.60;73.60;;;;;;5015847;28;20490;-68
2021/04/30 10:36:19;;;;;;;9.45;6.65;;;18.60;74.10;;;;;;5015591;28;20033;-68
2021/04/30 10:38:50;;;;;;;6.22;2.50;;;18.70;74.70;;;;;;5014067;28;20026;-68
2021/04/30 10:41:36;;;;;;;6.05;4.40;;;18.70;74.60;;;;;;5014949;28;20034;-69
2021/04/30 10:44:15;;;;;;;5.88;1.63;;;18.70;76.30;;;;;;5014819;28;20070;-68
2021/04/30 10:46:43;;;;;;;6.97;2.53;;;18.70;71.70;;;;;;5015328;28;20054;-69
2021/04/30 10:49:11;;;;;;;7.75;1.83;;;18.70;72.90;;;;;;5015024;28;20084;-68
2021/04/30 10:51:39;;;;;;;4.35;1.80;;;18.80;71.80;;;;;;5015021;28;20060;-69
2021/04/30 10:54:24;;;;;;;8.25;1.25;;;18.80;72.00;;;;;;5015257;28;20030;-68
2021/04/30 10:57:10;;;;;;;19.60;1.73;;;18.90;68.90;;;;;;5015224;28;20105;-69
2021/04/30 10:59:39;;;;;;;6.30;1.73;;;18.80;68.20;;;;;;5010335;28;20034;-69
2021/04/30 11:02:30;;;;;;;5.82;1.45;;;18.80;68.50;;;;;;5011802;28;20029;-68
2021/04/30 11:05:14;;;;;;;3.78;1.45;;;18.80;67.70;;;;;;5014390;28;20018;-70
2021/04/30 11:07:51;;;;;;;3.95;1.42;;;18.70;68.50;;;;;;5014859;28;20030;-68
2021/04/30 11:10:23;;;;;;;4.55;1.60;;;18.70;67.90;;;;;;5014582;28;20128;-68
2021/04/30 11:12:59;;;;;;;7.75;1.35;;;18.70;68.90;;;;;;5014738;28;20022;-68
2021/04/30 11:15:29;;;;;;;7.85;1.90;;;18.70;68.90;;;;;;5014300;28;20055;-69
2021/04/30 11:18:01;;;;;;;5.63;1.40;;;18.90;70.30;;;;;;5014325;28;20497;-68
2021/04/30 11:20:31;;;;;;;5.07;1.48;;;19.20;69.90;;;;;;5014343;28;20533;-68
2021/04/30 11:23:19;;;;;;;4.25;1.60;;;19.30;67.70;;;;;;5013386;28;20104;-68
2021/04/30 11:25:57;;;;;;;7.57;1.60;;;19.50;67.90;;;;;;5011820;28;20037;-69
2021/04/30 11:28:43;;;;;;;6.70;1.65;;;19.60;66.10;;;;;;5011669;28;20053;-69
2021/04/30 11:31:14;;;;;;;4.82;1.63;;;19.80;69.00;;;;;;5010319;28;20060;-68
2021/04/30 11:34:04;;;;;;;8.13;1.98;;;20.00;69.30;;;;;;5014189;28;20453;-69
2021/04/30 11:36:31;;;;;;;6.95;1.65;;;20.10;66.90;;;;;;5014035;28;20419;-69
2021/04/30 11:39:20;;;;;;;4.45;1.70;;;20.20;65.50;;;;;;5013594;28;20033;-68
2021/04/30 11:41:48;;;;;;;5.32;1.70;;;20.20;66.60;;;;;;5013885;28;20038;-68
2021/04/30 11:44:19;;;;;;;4.07;1.38;;;20.20;65.00;;;;;;5012827;28;20172;-68
2021/04/30 11:46:52;;;;;;;7.07;1.67;;;20.30;65.30;;;;;;5013726;28;20105;-68
2021/04/30 11:49:20;;;;;;;5.28;1.60;;;20.30;63.80;;;;;;5013726;28;20067;-68
2021/04/30 11:51:47;;;;;;;7.88;1.70;;;20.30;64.30;;;;;;5012270;28;20095;-69
2021/04/30 11:54:17;;;;;;;5.53;1.80;;;;;;;;;;5012489;28;20026;-71
2021/04/30 11:56:45;;;;;;;4.88;1.38;;;20.40;65.10;;;;;;5013674;28;20111;-70
2021/04/30 11:59:18;;;;;;;6.18;1.67;;;20.50;62.70;;;;;;5013541;28;20014;-69
2021/04/30 12:01:54;;;;;;;7.55;1.98;;;20.60;64.10;;;;;;5013398;28;20061;-70
2021/04/30 12:04:41;;;;;;;4.88;1.15;;;20.70;64.40;;;;;;5013736;28;20033;-69
2021/04/30 12:07:09;;;;;;;5.75;1.50;;;20.80;63.30;;;;;;5013694;28;20079;-71
2021/04/30 12:09:35;;;;;;;3.38;1.50;;;20.80;63.00;;;;;;5013566;28;20437;-70
2021/04/30 12:12:11;;;;;;;5.57;1.38;;;20.70;61.90;;;;;;5013786;28;20021;-69
2021/04/30 12:14:51;;;;;;;5.35;1.58;;;20.60;62.30;;;;;;5012596;28;20117;-69
2021/04/30 12:17:20;;;;;;;6.90;1.50;;;20.50;62.40;;;;;;5012231;28;20495;-71
2021/04/30 12:19:54;;;;;;;4.70;1.30;;;20.50;63.70;;;;;;5013529;28;20041;-69
2021/04/30 12:22:19;;;;;;;9.05;1.60;;;20.50;65.00;;;;;;5013744;28;20038;-69
2021/04/30 12:24:45;;;;;;;3.95;1.58;;;20.50;63.10;;;;;;5013512;28;20026;-69
2021/04/30 12:27:27;;;;;;;5.00;1.23;;;20.50;63.70;;;;;;5013451;28;20022;-67
2021/04/30 12:29:54;;;;;;;4.90;1.58;;;20.60;63.10;;;;;;5013606;28;20021;-68
2021/04/30 12:32:26;;;;;;;4.78;1.60;;;20.60;62.50;;;;;;5013694;28;20033;-69
2021/04/30 12:34:53;;;;;;;3.58;1.40;;;20.60;62.90;;;;;;5013674;28;20161;-69
2021/04/30 12:37:19;;;;;;;3.75;1.60;;;20.60;62.50;;;;;;5013127;28;20425;-69
2021/04/30 12:39:45;;;;;;;7.28;1.67;;;20.60;62.70;;;;;;5012231;28;20032;-70
2021/04/30 12:42:10;;;;;;;4.90;1.58;;;20.60;62.30;;;;;;5013472;28;20038;-69
2021/04/30 12:44:36;;;;;;;3.65;1.35;;;20.60;64.20;;;;;;5013379;28;20026;-69
2021/04/30 12:47:05;;;;;;;3.20;1.10;;;20.60;63.10;;;;;;5013436;28;20025;-69
2021/04/30 12:49:36;;;;;;;3.78;1.30;;;20.60;62.30;;;;;;5012787;28;20033;-70